Time;durP1;ratioP1;P1;durP2;ratioP2;P2;SDS_P1;SDS_P2;PMS_P1;PMS_P2;Temp;Humidity;BMP_temperature;BMP_pressure;BME280_temperature;BME280_humidity;BME280_pressure;Samples;Min_cycle;Max_cycle;Signal;HPM_P1;HPM_P2
2021/04/05 00:01:47;;;;;;;;;;;;;;;11.46;26.43;100180.00;5335977;26;34426;-91
2021/04/05 00:04:17;;;;;;;;;;;;;;;11.25;26.67;100179.72;5335746;26;33562;-92
2021/04/05 00:06:45;;;;;;;;;;;;;;;11.71;25.92;100177.56;5335974;26;32494;-92
2021/04/05 00:09:18;;;;;;;;;;;;;;;11.78;26.02;100167.81;5337558;26;33092;-91
2021/04/05 00:11:45;;;;;;;;;;;;;;;11.66;26.17;100169.88;5336139;26;32885;-92
2021/04/05 00:14:14;;;;;;;;;;;;;;;11.38;26.61;100172.44;5337179;26;32993;-92
2021/04/05 00:16:42;;;;;;;;;;;;;;;11.42;26.62;100171.44;5359214;26;33025;-93
2021/04/05 00:19:13;;;;;;;;;;;;;;;10.69;27.63;100165.50;5339215;26;33236;-92
2021/04/05 00:21:45;;;;;;;;;;;;;;;11.36;26.52;100162.00;5320285;26;33898;-92
2021/04/05 00:24:14;;;;;;;;;;;;;;;11.23;26.94;100162.41;5348248;26;32814;-92
2021/04/05 00:27:03;;;;;;;;;;;;;;;11.12;26.90;100158.31;5343847;26;32551;-93
2021/04/05 00:29:30;;;;;;;;;;;;;;;11.08;27.04;100155.84;5334981;26;32970;-92
2021/04/05 00:32:34;;;;;;;;;;;;;;;10.85;27.50;100152.09;5346042;26;33161;-92
2021/04/05 00:35:03;;;;;;;;;;;;;;;10.74;28.02;100151.47;5335472;26;33840;-94
2021/04/05 00:37:36;;;;;;;;;;;;;;;10.07;29.21;100157.38;5336809;26;32254;-92
2021/04/05 00:40:16;;;;;;;;;;;;;;;10.31;28.79;100150.75;5339424;26;32947;-92
2021/04/05 00:42:52;;;;;;;;;;;;;;;10.18;28.87;100145.81;5337609;26;33288;-93
2021/04/05 00:45:24;;;;;;;;;;;;;;;10.50;28.31;100144.25;5336525;26;33031;-92
2021/04/05 00:47:58;;;;;;;;;;;;;;;10.12;28.69;100142.50;5372712;26;33223;-92
2021/04/05 00:50:41;;;;;;;;;;;;;;;10.61;27.74;100145.72;5355476;26;33003;-92
2021/04/05 00:53:10;;;;;;;;;;;;;;;10.02;28.55;100147.91;5371880;26;33781;-92
2021/04/05 00:55:40;;;;;;;;;;;;;;;9.69;29.05;100145.16;5354021;26;34227;-92
2021/04/05 00:58:07;;;;;;;;;;;;;;;9.92;28.88;100141.19;5355405;26;32208;-92
2021/04/05 01:00:41;;;;;;;;;;;;;;;9.90;28.81;100137.75;5373938;26;34509;-92
2021/04/05 01:03:11;;;;;;;;;;;;;;;10.43;28.13;100131.41;5374288;26;33063;-92
2021/04/05 01:05:49;;;;;;;;;;;;;;;10.80;27.53;100128.72;5375364;26;33137;-92
2021/04/05 01:08:17;;;;;;;;;;;;;;;10.86;27.26;100119.88;5355450;26;32045;-92
2021/04/05 01:11:15;;;;;;;;;;;;;;;10.91;27.06;100122.37;5364444;26;33081;-93
2021/04/05 01:13:44;;;;;;;;;;;;;;;10.98;27.01;100114.38;5355546;26;33171;-92
2021/04/05 01:16:12;;;;;;;;;;;;;;;11.09;26.76;100111.47;5355990;26;32694;-92
2021/04/05 01:18:40;;;;;;;;;;;;;;;11.07;26.80;100115.84;5374852;26;33423;-91
2021/04/05 01:21:09;;;;;;;;;;;;;;;11.03;26.85;100111.63;5354897;26;33024;-92
2021/04/05 01:23:36;;;;;;;;;;;;;;;10.57;27.42;100116.28;5355610;26;33290;-93
2021/04/05 01:26:04;;;;;;;;;;;;;;;11.11;26.76;100112.25;5374276;26;33786;-92
2021/04/05 01:28:37;;;;;;;;;;;;;;;10.65;27.44;100116.94;5357477;26;33596;-93
2021/04/05 01:31:07;;;;;;;;;;;;;;;10.82;27.33;100113.03;5356399;26;33405;-92
2021/04/05 01:33:37;;;;;;;;;;;;;;;11.09;26.81;100118.41;5355776;26;33223;-93
2021/04/05 01:36:13;;;;;;;;;;;;;;;10.23;27.97;100111.00;5357799;26;32997;-92
2021/04/05 01:38:43;;;;;;;;;;;;;;;10.93;26.96;100100.59;5355380;26;32111;-91
2021/04/05 01:41:11;;;;;;;;;;;;;;;11.28;26.33;100093.53;5354575;26;32935;-92
2021/04/05 01:43:38;;;;;;;;;;;;;;;11.26;26.23;100100.56;5373232;26;33221;-92
2021/04/05 01:46:08;;;;;;;;;;;;;;;11.27;26.27;100096.19;5354831;26;32851;-92
2021/04/05 01:48:36;;;;;;;;;;;;;;;10.75;26.90;100091.50;5355656;26;32147;-93
2021/04/05 01:51:04;;;;;;;;;;;;;;;10.03;27.91;100097.53;5357729;26;33438;-92
2021/04/05 01:53:33;;;;;;;;;;;;;;;10.58;27.25;100097.13;5377025;26;33213;-92
2021/04/05 01:56:06;;;;;;;;;;;;;;;10.74;26.97;100097.59;5382908;26;32646;-91
2021/04/05 01:58:38;;;;;;;;;;;;;;;10.63;27.10;100103.09;5380935;26;33334;-92
2021/04/05 02:01:16;;;;;;;;;;;;;;;10.60;27.17;100097.97;5366281;26;32775;-92
2021/04/05 02:03:44;;;;;;;;;;;;;;;10.02;28.04;100101.06;5385592;26;33993;-92
2021/04/05 02:06:15;;;;;;;;;;;;;;;10.17;27.88;100094.63;5367453;26;33930;-93
2021/04/05 02:08:44;;;;;;;;;;;;;;;9.78;28.33;100102.44;5382247;26;33491;-92
2021/04/05 02:11:13;;;;;;;;;;;;;;;9.81;28.39;100096.31;5382489;26;35047;-92
2021/04/05 02:13:50;;;;;;;;;;;;;;;9.90;28.19;100093.50;5360967;26;33192;-92
2021/04/05 02:16:23;;;;;;;;;;;;;;;10.12;28.06;100086.06;5357227;26;33375;-92
2021/04/05 02:18:53;;;;;;;;;;;;;;;9.92;28.38;100075.25;5356328;26;32053;-92
2021/04/05 02:21:23;;;;;;;;;;;;;;;10.12;28.07;100082.62;5374017;26;33118;-93
2021/04/05 02:23:52;;;;;;;;;;;;;;;10.04;28.15;100077.59;5355690;26;33109;-92
2021/04/05 02:26:24;;;;;;;;;;;;;;;9.65;28.93;100075.84;5355121;26;32559;-93
2021/04/05 02:29:01;;;;;;;;;;;;;;;8.80;30.03;100072.34;5354277;26;32337;-92
2021/04/05 02:31:32;;;;;;;;;;;;;;;9.09;29.75;100070.06;5373799;26;33247;-91
2021/04/05 02:34:05;;;;;;;;;;;;;;;9.49;29.20;100074.44;5355706;26;33379;-93
2021/04/05 02:36:39;;;;;;;;;;;;;;;9.38;29.30;100066.03;5374156;26;33049;-92
2021/04/05 02:39:08;;;;;;;;;;;;;;;9.07;29.90;100064.03;5354632;26;32131;-93
2021/04/05 02:41:40;;;;;;;;;;;;;;;9.37;29.51;100072.97;5373765;26;32964;-92
2021/04/05 02:44:08;;;;;;;;;;;;;;;9.77;28.85;100058.25;5355429;26;32968;-93
2021/04/05 02:46:40;;;;;;;;;;;;;;;9.59;29.04;100047.37;5375306;26;33924;-93
2021/04/05 02:49:12;;;;;;;;;;;;;;;9.69;28.86;100046.28;5355678;26;32377;-94
2021/04/05 02:51:41;;;;;;;;;;;;;;;9.28;29.81;100040.22;5355608;26;33015;-93
2021/04/05 02:54:12;;;;;;;;;;;;;;;8.85;30.46;100041.94;5355327;26;35338;-93
2021/04/05 02:56:43;;;;;;;;;;;;;;;8.89;30.57;100042.72;5373392;26;32794;-93
2021/04/05 02:59:10;;;;;;;;;;;;;;;9.08;30.17;100040.63;5372779;26;31963;-92
2021/04/05 03:01:38;;;;;;;;;;;;;;;9.37;29.73;100041.75;5373246;26;33170;-93
2021/04/05 03:04:09;;;;;;;;;;;;;;;8.95;30.24;100044.37;5362613;26;34151;-93
2021/04/05 03:06:42;;;;;;;;;;;;;;;8.39;31.21;100037.53;5361863;26;32687;-92
2021/04/05 03:09:10;;;;;;;;;;;;;;;8.65;30.76;100044.88;5360406;26;31907;-91
2021/04/05 03:11:42;;;;;;;;;;;;;;;9.10;29.85;100038.00;5378671;26;33993;-91
2021/04/05 03:14:15;;;;;;;;;;;;;;;9.34;29.54;100039.22;5359529;26;34075;-93
2021/04/05 03:16:43;;;;;;;;;;;;;;;9.04;29.91;100046.78;5355457;26;33208;-92
2021/04/05 03:19:12;;;;;;;;;;;;;;;8.83;30.17;100042.84;5354747;26;32162;-92
2021/04/05 03:21:41;;;;;;;;;;;;;;;8.21;31.42;100038.69;5373953;26;32857;-92
2021/04/05 03:24:09;;;;;;;;;;;;;;;8.74;30.48;100023.09;5356070;26;33100;-93
2021/04/05 03:26:42;;;;;;;;;;;;;;;8.31;31.46;100019.50;5358231;26;32813;-93
2021/04/05 03:29:10;;;;;;;;;;;;;;;8.88;30.66;100025.41;5358031;26;33416;-93
2021/04/05 03:31:37;;;;;;;;;;;;;;;9.11;29.84;100011.97;5357031;26;33476;-93
2021/04/05 03:34:11;;;;;;;;;;;;;;;8.61;30.35;100006.03;5375269;26;33001;-93
2021/04/05 03:36:40;;;;;;;;;;;;;;;8.57;30.56;100000.00;5355483;26;33111;-93
2021/04/05 03:39:13;;;;;;;;;;;;;;;8.87;30.25;99995.13;5355892;26;32352;-93
2021/04/05 03:41:47;;;;;;;;;;;;;;;9.38;29.42;99998.41;5354673;26;33413;-91
2021/04/05 03:44:41;;;;;;;;;;;;;;;8.78;30.23;99993.56;5374337;26;34915;-93
2021/04/05 03:47:15;;;;;;;;;;;;;;;8.26;31.06;99992.75;5373722;26;32942;-93
2021/04/05 03:49:47;;;;;;;;;;;;;;;8.37;30.97;99992.56;5354906;26;32061;-93
2021/04/05 03:52:28;;;;;;;;;;;;;;;8.55;30.85;99986.22;5355138;26;33256;-93
2021/04/05 03:55:00;;;;;;;;;;;;;;;7.98;32.03;99985.44;5356091;26;33270;-92
2021/04/05 03:57:32;;;;;;;;;;;;;;;7.99;31.85;99981.97;5355584;26;32834;-92
2021/04/05 04:00:00;;;;;;;;;;;;;;;8.32;31.40;99977.09;5354695;26;31779;-92
2021/04/05 04:02:45;;;;;;;;;;;;;;;8.42;31.08;99982.09;5374793;26;32491;-92
2021/04/05 04:05:29;;;;;;;;;;;;;;;8.33;31.36;99970.97;5356661;26;33151;-93
2021/04/05 04:08:08;;;;;;;;;;;;;;;8.28;31.29;99966.75;5337405;26;32449;-92
2021/04/05 04:10:37;;;;;;;;;;;;;;;9.07;30.04;99960.06;5357407;26;32090;-93
2021/04/05 04:13:05;;;;;;;;;;;;;;;8.81;30.52;99961.47;5373461;26;33139;-93
2021/04/05 04:15:35;;;;;;;;;;;;;;;7.96;31.60;99956.03;5355990;26;32963;-92
2021/04/05 04:18:02;;;;;;;;;;;;;;;7.94;31.87;99951.78;5353656;26;33407;-91
2021/04/05 04:20:33;;;;;;;;;;;;;;;7.75;31.95;99954.69;5373151;26;32682;-92
2021/04/05 04:23:01;;;;;;;;;;;;;;;7.63;32.14;99947.94;5372493;26;32961;-92
2021/04/05 04:25:29;;;;;;;;;;;;;;;8.10;31.52;99952.38;5354427;26;33296;-92
2021/04/05 04:27:56;;;;;;;;;;;;;;;7.73;31.95;99947.81;5336386;26;32729;-93
2021/04/05 04:30:33;;;;;;;;;;;;;;;7.86;31.84;99952.75;5356274;26;32021;-92
2021/04/05 04:33:07;;;;;;;;;;;;;;;8.25;31.16;99956.44;5356166;26;33938;-93
2021/04/05 04:35:36;;;;;;;;;;;;;;;7.94;31.61;99946.59;5372754;26;34313;-92
2021/04/05 04:38:14;;;;;;;;;;;;;;;7.71;32.13;99949.56;5374530;26;32531;-93
2021/04/05 04:40:42;;;;;;;;;;;;;;;7.75;32.15;99951.22;5354361;26;32005;-93
2021/04/05 04:43:09;;;;;;;;;;;;;;;8.15;31.18;99953.13;5353780;26;32843;-93
2021/04/05 04:45:50;;;;;;;;;;;;;;;8.02;31.49;99947.31;5358393;26;33036;-93
2021/04/05 04:48:18;;;;;;;;;;;;;;;8.31;30.81;99941.63;5353559;26;33299;-94
2021/04/05 04:50:50;;;;;;;;;;;;;;;8.45;30.90;99945.69;5355605;26;32424;-93
2021/04/05 04:53:18;;;;;;;;;;;;;;;8.47;31.02;99941.34;5353822;26;33024;-93
2021/04/05 04:55:46;;;;;;;;;;;;;;;8.83;30.22;99949.31;5355582;26;33628;-92
2021/04/05 04:58:15;;;;;;;;;;;;;;;8.57;30.81;99950.66;5376000;26;32805;-94
2021/04/05 05:00:46;;;;;;;;;;;;;;;8.29;31.58;99948.56;5362813;26;33395;-92
2021/04/05 05:03:18;;;;;;;;;;;;;;;8.76;30.93;99942.50;5365258;26;32956;-92
2021/04/05 05:05:50;;;;;;;;;;;;;;;9.10;30.23;99936.62;5362327;26;33175;-91
2021/04/05 05:08:38;;;;;;;;;;;;;;;8.67;31.04;99946.19;5379787;26;34324;-90
2021/04/05 05:11:10;;;;;;;;;;;;;;;9.05;30.54;99941.06;5357636;26;32817;-92
2021/04/05 05:13:39;;;;;;;;;;;;;;;8.93;30.62;99937.81;5354909;26;33145;-93
2021/04/05 05:16:26;;;;;;;;;;;;;;;9.06;30.62;99935.81;5359936;26;33004;-93
2021/04/05 05:18:58;;;;;;;;;;;;;;;9.11;30.76;99938.34;5374238;26;32959;-93
2021/04/05 05:21:32;;;;;;;;;;;;;;;9.31;30.64;99940.50;5354998;26;32609;-95
2021/04/05 05:24:05;;;;;;;;;;;;;;;9.16;30.78;99937.34;5356325;26;33108;-93
2021/04/05 05:26:38;;;;;;;;;;;;;;;9.24;30.84;99938.91;5355810;26;32710;-92
2021/04/05 05:29:07;;;;;;;;;;;;;;;9.67;30.14;99933.56;5354434;26;34132;-93
2021/04/05 05:31:38;;;;;;;;;;;;;;;9.45;30.57;99932.37;5353096;26;32220;-92
2021/04/05 05:34:06;;;;;;;;;;;;;;;10.28;29.37;99922.50;5316552;26;959968;-92
2021/04/05 05:36:35;;;;;;;;;;;;;;;9.80;30.33;99917.69;5338381;26;32954;-92
2021/04/05 05:39:04;;;;;;;;;;;;;;;9.96;30.08;99918.16;5353547;26;32872;-92
2021/04/05 05:41:37;;;;;;;;;;;;;;;10.90;28.53;99918.19;5371803;26;32077;-92
2021/04/05 05:44:05;;;;;;;;;;;;;;;11.69;27.56;99919.22;5371617;26;33392;-93
2021/04/05 05:46:55;;;;;;;;;;;;;;;11.13;28.60;99927.09;5357747;26;34126;-94
2021/04/05 05:49:29;;;;;;;;;;;;;;;11.55;28.14;99921.41;5372643;26;34183;-93
2021/04/05 05:52:00;;;;;;;;;;;;;;;11.76;27.88;99917.25;5375170;26;32707;-92
2021/04/05 05:54:47;;;;;;;;;;;;;;;11.91;27.65;99917.66;5374818;26;33057;-93
2021/04/05 05:57:22;;;;;;;;;;;;;;;11.86;27.90;99920.44;5374425;26;33456;-92
2021/04/05 06:00:05;;;;;;;;;;;;;;;12.33;27.17;99919.75;5360036;26;32730;-93
2021/04/05 06:02:50;;;;;;;;;;;;;;;11.97;28.00;99907.91;5376339;26;32560;-92
2021/04/05 06:05:38;;;;;;;;;;;;;;;12.23;27.77;99902.66;5355451;26;34090;-93
2021/04/05 06:08:13;;;;;;;;;;;;;;;12.40;27.61;99910.75;5378699;26;33204;-93
2021/04/05 06:10:44;;;;;;;;;;;;;;;12.39;28.04;99902.97;5374233;26;32834;-94
2021/04/05 06:13:35;;;;;;;;;;;;;;;12.79;27.32;99893.66;5391613;26;33451;-94
2021/04/05 06:16:26;;;;;;;;;;;;;;;13.00;26.95;99887.66;5356377;26;32880;-92
2021/04/05 06:19:03;;;;;;;;;;;;;;;13.32;26.64;99877.69;5359296;26;32860;-93
2021/04/05 06:21:36;;;;;;;;;;;;;;;13.43;26.29;99868.53;5374281;26;32985;-92
2021/04/05 06:24:15;;;;;;;;;;;;;;;13.80;25.68;99865.28;5375633;26;31752;-93
2021/04/05 06:26:56;;;;;;;;;;;;;;;14.11;25.06;99857.88;5357924;26;33140;-94
2021/04/05 06:29:45;;;;;;;;;;;;;;;14.56;24.20;99856.72;5356091;26;33514;-95
2021/04/05 06:32:15;;;;;;;;;;;;;;;14.67;23.96;99857.09;5357710;26;32912;-93
2021/04/05 06:35:12;;;;;;;;;;;;;;;15.06;23.49;99857.09;5379555;26;32435;-94
2021/04/05 06:37:47;;;;;;;;;;;;;;;14.33;24.51;99855.13;5375888;26;33261;-93
2021/04/05 06:40:20;;;;;;;;;;;;;;;13.77;25.36;99847.06;5375702;26;32822;-94
2021/04/05 06:43:18;;;;;;;;;;;;;;;13.36;25.54;99847.87;5362427;26;32851;-93
2021/04/05 06:45:56;;;;;;;;;;;;;;;13.36;25.91;99840.03;5375810;26;32813;-93
2021/04/05 06:48:31;;;;;;;;;;;;;;;14.34;24.52;99836.72;5375283;26;32851;-93
2021/04/05 06:50:59;;;;;;;;;;;;;;;12.90;26.59;99825.31;5374036;26;33113;-94
2021/04/05 06:53:47;;;;;;;;;;;;;;;12.38;27.16;99828.97;5393106;26;34331;-93
2021/04/05 06:57:14;;;;;;;;;;;;;;;12.67;26.81;99833.13;5381579;26;32132;-95
2021/04/05 06:59:49;;;;;;;;;;;;;;;12.48;26.96;99826.88;5356862;26;33765;-93
2021/04/05 07:02:43;;;;;;;;;;;;;;;12.55;26.80;99830.09;5376273;26;34022;-94
2021/04/05 07:05:14;;;;;;;;;;;;;;;12.81;26.66;99822.09;5373810;26;32926;-92
2021/04/05 07:08:34;;;;;;;;;;;;;;;11.76;28.26;99836.34;5394082;26;33731;-94
2021/04/05 07:11:25;;;;;;;;;;;;;;;11.62;28.69;99829.00;5348397;26;33309;-93
2021/04/05 07:14:03;;;;;;;;;;;;;;;12.30;27.95;99826.66;5354416;26;32980;-93
2021/04/05 07:16:49;;;;;;;;;;;;;;;10.92;30.55;99829.53;5353125;26;33143;-91
2021/04/05 07:19:47;;;;;;;;;;;;;;;12.19;28.98;99824.44;5377102;26;32907;-93
2021/04/05 07:22:21;;;;;;;;;;;;;;;12.02;29.63;99818.97;5373737;26;33861;-93
2021/04/05 07:24:50;;;;;;;;;;;;;;;11.68;30.45;99812.28;5373983;26;33469;-93
2021/04/05 07:27:25;;;;;;;;;;;;;;;12.40;29.67;99811.47;5373844;26;33193;-94
2021/04/05 07:30:03;;;;;;;;;;;;;;;13.42;28.39;99801.44;5358139;26;31901;-94
2021/04/05 07:32:48;;;;;;;;;;;;;;;11.52;31.65;99802.34;5375076;26;33318;-92
2021/04/05 07:35:29;;;;;;;;;;;;;;;13.09;29.70;99804.50;5373811;26;34990;-94
2021/04/05 07:38:20;;;;;;;;;;;;;;;12.77;30.44;99802.22;5356830;26;33511;-92
2021/04/05 07:40:55;;;;;;;;;;;;;;;12.70;31.22;99798.16;5374931;26;33547;-92
2021/04/05 07:43:44;;;;;;;;;;;;;;;13.31;30.12;99787.00;5361154;26;32888;-93
2021/04/05 07:46:33;;;;;;;;;;;;;;;12.58;31.70;99796.88;5373746;26;33155;-93
2021/04/05 07:49:17;;;;;;;;;;;;;;;13.96;29.27;99786.03;5373198;26;34149;-93
2021/04/05 07:51:58;;;;;;;;;;;;;;;12.36;31.53;99795.06;5356658;26;32441;-93
2021/04/05 07:54:32;;;;;;;;;;;;;;;11.68;32.51;99794.84;5376750;26;32938;-93
2021/04/05 07:57:20;;;;;;;;;;;;;;;13.31;29.93;99781.75;5360146;26;32743;-93
2021/04/05 08:00:00;;;;;;;;;;;;;;;12.87;30.57;99787.03;5374099;26;34094;-93
2021/04/05 08:02:30;;;;;;;;;;;;;;;13.58;29.67;99780.69;5374826;26;33556;-92
2021/04/05 08:05:14;;;;;;;;;;;;;;;14.47;27.92;99775.88;5374383;26;34234;-92
2021/04/05 08:07:54;;;;;;;;;;;;;;;15.29;26.79;99778.09;5374788;26;33473;-93
2021/04/05 08:10:30;;;;;;;;;;;;;;;14.30;27.64;99777.50;5376463;26;32820;-92
2021/04/05 08:13:13;;;;;;;;;;;;;;;14.52;27.60;99774.75;5377094;26;32639;-93
2021/04/05 08:15:55;;;;;;;;;;;;;;;14.22;27.93;99779.63;5378418;26;32703;-93
2021/04/05 08:18:41;;;;;;;;;;;;;;;13.75;28.43;99772.97;5375707;26;32602;-92
2021/04/05 08:21:28;;;;;;;;;;;;;;;13.89;28.61;99771.50;5376398;26;32741;-92
2021/04/05 08:24:27;;;;;;;;;;;;;;;14.65;27.58;99763.69;5376791;26;32060;-92
2021/04/05 08:27:00;;;;;;;;;;;;;;;15.17;26.52;99765.56;5354804;26;33275;-93
2021/04/05 08:29:40;;;;;;;;;;;;;;;14.23;27.63;99757.75;5354409;26;33113;-93
2021/04/05 08:32:21;;;;;;;;;;;;;;;14.61;26.74;99754.25;5356563;26;32899;-91
2021/04/05 08:35:09;;;;;;;;;;;;;;;14.35;26.12;99748.47;5355698;26;33431;-93
2021/04/05 08:37:44;;;;;;;;;;;;;;;14.59;25.54;99746.47;5374314;26;33203;-93
2021/04/05 08:40:15;;;;;;;;;;;;;;;15.23;24.93;99740.81;5355289;26;34157;-92
2021/04/05 08:43:02;;;;;;;;;;;;;;;15.94;24.02;99734.53;5355210;26;34060;-92
2021/04/05 08:45:33;;;;;;;;;;;;;;;15.73;24.04;99721.59;5373885;26;32918;-93
2021/04/05 08:48:09;;;;;;;;;;;;;;;15.90;23.48;99744.41;5374008;26;34037;-93
2021/04/05 08:50:38;;;;;;;;;;;;;;;15.66;23.76;99726.31;5355584;26;33444;-92
2021/04/05 08:53:09;;;;;;;;;;;;;;;15.38;24.03;99721.63;5356557;26;33316;-92
2021/04/05 08:55:38;;;;;;;;;;;;;;;15.05;24.19;99717.19;5374559;26;33430;-92
2021/04/05 08:58:06;;;;;;;;;;;;;;;14.49;24.71;99713.72;5355374;26;33130;-92
2021/04/05 09:00:37;;;;;;;;;;;;;;;13.16;26.62;99719.59;5338145;26;33420;-93
2021/04/05 09:03:10;;;;;;;;;;;;;;;14.95;23.94;99708.91;5355628;26;32998;-93
2021/04/05 09:05:42;;;;;;;;;;;;;;;15.66;22.82;99704.44;5373906;26;31857;-94
2021/04/05 09:08:11;;;;;;;;;;;;;;;14.88;23.28;99697.03;5355684;26;33069;-93
2021/04/05 09:10:52;;;;;;;;;;;;;;;14.99;23.41;99694.72;5374090;26;33779;-92
2021/04/05 09:13:21;;;;;;;;;;;;;;;14.81;23.39;99686.00;5374312;26;32703;-94
2021/04/05 09:16:02;;;;;;;;;;;;;;;16.08;21.70;99686.53;5356227;26;32471;-93
2021/04/05 09:18:48;;;;;;;;;;;;;;;15.36;22.28;99684.97;5373630;26;32963;-93
2021/04/05 09:21:45;;;;;;;;;;;;;;;16.15;21.76;99688.72;5373830;26;32984;-93
2021/04/05 09:24:31;;;;;;;;;;;;;;;15.51;22.09;99678.06;5372113;26;34105;-93
2021/04/05 09:27:11;;;;;;;;;;;;;;;15.74;21.54;99670.78;5374980;26;32083;-93
2021/04/05 09:29:41;;;;;;;;;;;;;;;16.99;20.05;99658.59;5374782;26;32505;-92
2021/04/05 09:32:09;;;;;;;;;;;;;;;16.32;20.79;99655.38;5374705;26;34593;-93
2021/04/05 09:34:38;;;;;;;;;;;;;;;16.65;20.48;99641.25;5374273;26;33201;-93
2021/04/05 09:37:15;;;;;;;;;;;;;;;16.59;20.69;99646.88;5374475;26;32450;-93
2021/04/05 09:39:47;;;;;;;;;;;;;;;16.06;21.19;99630.56;5374280;26;33359;-93
2021/04/05 09:42:27;;;;;;;;;;;;;;;15.69;21.41;99636.03;5374729;26;33345;-93
2021/04/05 09:45:02;;;;;;;;;;;;;;;16.56;20.35;99636.53;5356132;26;32721;-94
2021/04/05 09:47:29;;;;;;;;;;;;;;;15.88;20.97;99617.50;5374224;26;32371;-93
2021/04/05 09:50:08;;;;;;;;;;;;;;;15.00;22.38;99614.25;5375671;26;32890;-93
2021/04/05 09:52:53;;;;;;;;;;;;;;;16.70;20.28;99602.38;5358104;26;33515;-93
2021/04/05 09:55:25;;;;;;;;;;;;;;;15.70;20.91;99609.66;5393605;26;32935;-92
2021/04/05 09:57:58;;;;;;;;;;;;;;;15.87;21.03;99602.66;5356879;26;32592;-95
2021/04/05 10:00:27;;;;;;;;;;;;;;;16.64;20.08;99603.56;5338978;26;32859;-93
2021/04/05 10:03:00;;;;;;;;;;;;;;;15.96;21.19;99590.81;5359348;26;34190;-93
2021/04/05 10:05:29;;;;;;;;;;;;;;;15.90;21.18;99581.50;5359683;26;32984;-94
2021/04/05 10:08:00;;;;;;;;;;;;;;;17.89;18.74;99584.63;5360229;26;32061;-93
2021/04/05 10:10:28;;;;;;;;;;;;;;;17.62;18.96;99574.91;5360439;26;34250;-93
2021/04/05 10:12:58;;;;;;;;;;;;;;;16.86;19.96;99560.22;5358483;26;33375;-93
2021/04/05 10:15:34;;;;;;;;;;;;;;;16.79;19.88;99577.31;5360056;26;33021;-92
2021/04/05 10:18:01;;;;;;;;;;;;;;;17.08;19.84;99567.69;5375946;26;32184;-92
2021/04/05 10:20:32;;;;;;;;;;;;;;;16.36;20.54;99563.09;5359325;26;33428;-93
2021/04/05 10:23:06;;;;;;;;;;;;;;;17.23;19.70;99551.91;5375215;26;33426;-94
2021/04/05 10:25:35;;;;;;;;;;;;;;;17.28;19.54;99550.66;5356994;26;33000;-93
2021/04/05 10:28:04;;;;;;;;;;;;;;;17.12;19.63;99550.75;5357070;26;32233;-93
2021/04/05 10:30:33;;;;;;;;;;;;;;;17.11;19.47;99548.22;5375049;26;33745;-93
2021/04/05 10:33:13;;;;;;;;;;;;;;;16.02;20.28;99548.41;5374616;26;33308;-93
2021/04/05 10:35:41;;;;;;;;;;;;;;;16.36;20.42;99536.81;5357372;26;33812;-93
2021/04/05 10:38:10;;;;;;;;;;;;;;;17.58;18.91;99536.53;5375987;26;32609;-92
2021/04/05 10:40:38;;;;;;;;;;;;;;;16.87;19.32;99531.19;5356134;26;33643;-93
2021/04/05 10:43:31;;;;;;;;;;;;;;;16.38;19.87;99531.47;5376133;26;33400;-92
2021/04/05 10:46:00;;;;;;;;;;;;;;;16.97;19.63;99520.97;5374337;26;33062;-93
2021/04/05 10:48:42;;;;;;;;;;;;;;;18.60;17.94;99516.75;5375287;26;32438;-91
2021/04/05 10:51:28;;;;;;;;;;;;;;;17.19;18.88;99514.38;5357065;26;33043;-94
2021/04/05 10:54:01;;;;;;;;;;;;;;;17.72;18.66;99505.84;5339204;26;33548;-95
2021/04/05 10:56:29;;;;;;;;;;;;;;;17.86;18.05;99498.72;5360871;26;32969;-93
2021/04/05 10:59:07;;;;;;;;;;;;;;;17.18;18.72;99483.75;5383083;26;31999;-93
2021/04/05 11:01:43;;;;;;;;;;;;;;;17.13;18.37;99491.91;5383140;26;32711;-92
2021/04/05 11:04:11;;;;;;;;;;;;;;;16.67;19.37;99484.19;5365368;26;34073;-92
2021/04/05 11:06:39;;;;;;;;;;;;;;;17.24;18.93;99472.81;5365108;26;32728;-92
2021/04/05 11:09:08;;;;;;;;;;;;;;;18.58;17.45;99470.31;5359254;26;32344;-94
2021/04/05 11:11:38;;;;;;;;;;;;;;;17.29;18.56;99472.53;5358034;26;34164;-93
2021/04/05 11:14:07;;;;;;;;;;;;;;;17.78;18.38;99469.38;5357364;26;33182;-95
2021/04/05 11:16:37;;;;;;;;;;;;;;;17.42;18.86;99462.91;5356607;26;33386;-92
2021/04/05 11:19:07;;;;;;;;;;;;;;;17.55;18.17;99449.81;5355959;26;32348;-94
2021/04/05 11:21:42;;;;;;;;;;;;;;;17.72;18.54;99439.97;5355826;26;33321;-93
2021/04/05 11:24:11;;;;;;;;;;;;;;;18.03;17.88;99423.84;5355663;26;34095;-94
2021/04/05 11:26:40;;;;;;;;;;;;;;;18.42;17.62;99423.03;5354664;26;33137;-93
2021/04/05 11:29:09;;;;;;;;;;;;;;;18.80;17.22;99407.19;5374005;26;32082;-92
2021/04/05 11:31:41;;;;;;;;;;;;;;;18.97;17.44;99406.03;5374764;26;33890;-93
2021/04/05 11:34:09;;;;;;;;;;;;;;;18.18;18.35;99398.22;5355932;26;33466;-93
2021/04/05 11:36:41;;;;;;;;;;;;;;;18.53;18.19;99384.44;5373300;26;32912;-93
2021/04/05 11:39:11;;;;;;;;;;;;;;;18.06;18.91;99372.72;5372662;26;31958;-93
2021/04/05 11:41:39;;;;;;;;;;;;;;;18.97;18.26;99373.47;5374218;26;33181;-93
2021/04/05 11:44:06;;;;;;;;;;;;;;;19.44;17.61;99377.13;5356760;26;34127;-95
2021/04/05 11:46:37;;;;;;;;;;;;;;;20.21;16.74;99369.66;5356166;26;33345;-94
2021/04/05 11:49:08;;;;;;;;;;;;;;;18.68;18.15;99366.66;5374690;26;31850;-92
2021/04/05 11:51:39;;;;;;;;;;;;;;;18.83;17.83;99356.81;5356501;26;32702;-93
2021/04/05 11:54:07;;;;;;;;;;;;;;;19.51;17.47;99367.75;5356179;26;33396;-94
2021/04/05 11:56:35;;;;;;;;;;;;;;;19.04;17.81;99358.91;5355520;26;32646;-92
2021/04/05 11:59:13;;;;;;;;;;;;;;;18.77;18.13;99361.69;5373541;26;32715;-94
2021/04/05 12:01:44;;;;;;;;;;;;;;;17.41;18.98;99368.22;5372961;26;33551;-92
2021/04/05 12:04:15;;;;;;;;;;;;;;;16.74;19.70;99350.50;5355438;26;33432;-92
2021/04/05 12:07:06;;;;;;;;;;;;;;;17.57;18.96;99352.25;5355193;26;33391;-93
2021/04/05 12:09:41;;;;;;;;;;;;;;;18.30;17.98;99335.06;5383950;26;32770;-94
2021/04/05 12:12:09;;;;;;;;;;;;;;;18.74;17.45;99338.16;5358481;26;33733;-93
2021/04/05 12:14:37;;;;;;;;;;;;;;;19.18;17.15;99320.91;5378652;26;34935;-91
2021/04/05 12:17:05;;;;;;;;;;;;;;;18.33;17.80;99311.09;5377976;26;32885;-94
2021/04/05 12:19:42;;;;;;;;;;;;;;;19.97;16.40;99313.28;5358370;26;32125;-95
2021/04/05 12:22:11;;;;;;;;;;;;;;;18.40;18.18;99291.28;5359237;26;32967;-93
2021/04/05 12:24:40;;;;;;;;;;;;;;;18.58;18.03;99285.66;5358172;26;33349;-92
2021/04/05 12:27:10;;;;;;;;;;;;;;;17.86;18.59;99294.97;5358183;26;32403;-92
2021/04/05 12:29:40;;;;;;;;;;;;;;;19.02;17.51;99279.78;5356363;26;31956;-94
2021/04/05 12:32:08;;;;;;;;;;;;;;;18.93;17.89;99283.13;5355023;26;33523;-94
2021/04/05 12:34:39;;;;;;;;;;;;;;;20.03;16.55;99273.12;5357298;26;34076;-93
2021/04/05 12:37:10;;;;;;;;;;;;;;;18.11;18.67;99266.94;5355369;26;32899;-93
2021/04/05 12:39:41;;;;;;;;;;;;;;;19.22;17.58;99276.66;5374224;26;32704;-92
2021/04/05 12:42:10;;;;;;;;;;;;;;;18.20;18.53;99266.28;5355392;26;34197;-92
2021/04/05 12:44:45;;;;;;;;;;;;;;;19.83;16.88;99255.34;5374610;26;33647;-94
2021/04/05 12:47:13;;;;;;;;;;;;;;;19.50;17.35;99235.78;5355353;26;33869;-93
2021/04/05 12:49:42;;;;;;;;;;;;;;;19.67;17.08;99248.53;5374114;26;32669;-93
2021/04/05 12:52:11;;;;;;;;;;;;;;;19.52;17.28;99225.97;5354913;26;34230;-93
2021/04/05 12:54:47;;;;;;;;;;;;;;;20.39;16.57;99221.91;5356083;26;33236;-94
2021/04/05 12:57:15;;;;;;;;;;;;;;;19.82;16.94;99233.34;5355361;26;34485;-93
2021/04/05 12:59:43;;;;;;;;;;;;;;;18.68;18.20;99223.34;5374553;26;32900;-93
2021/04/05 13:02:10;;;;;;;;;;;;;;;18.89;18.23;99230.66;5355688;26;32494;-93
2021/04/05 13:04:48;;;;;;;;;;;;;;;19.72;17.02;99219.12;5374797;26;33510;-93
2021/04/05 13:07:16;;;;;;;;;;;;;;;19.96;16.96;99219.06;5375144;26;34248;-95
2021/04/05 13:09:52;;;;;;;;;;;;;;;20.49;16.57;99220.22;5374581;26;31696;-93
2021/04/05 13:12:28;;;;;;;;;;;;;;;20.32;16.87;99218.91;5339656;26;32953;-93
2021/04/05 13:15:04;;;;;;;;;;;;;;;19.64;17.48;99208.31;5357339;26;34066;-93
2021/04/05 13:17:33;;;;;;;;;;;;;;;19.88;17.26;99196.81;5357255;26;33159;-95
2021/04/05 13:20:14;;;;;;;;;;;;;;;20.33;16.56;99196.78;5376236;26;31695;-93
2021/04/05 13:22:56;;;;;;;;;;;;;;;19.75;16.68;99204.84;5357430;26;33093;-93